sensor_id;sensor_type;location;lat;lon;timestamp;P1;durP1;ratioP1;P2;durP2;ratioP2
34146;SDS011;20423;49.448;9.056;2022-10-17T00:03:46;8.05;;;4.22;;
34146;SDS011;20423;49.448;9.056;2022-10-17T00:06:12;11.52;;;3.33;;
34146;SDS011;20423;49.448;9.056;2022-10-17T00:08:39;7.72;;;4.30;;
34146;SDS011;20423;49.448;9.056;2022-10-17T00:11:07;8.40;;;3.90;;
34146;SDS011;20423;49.448;9.056;2022-10-17T00:13:44;10.73;;;4.47;;
34146;SDS011;20423;49.448;9.056;2022-10-17T00:16:11;15.00;;;4.03;;
34146;SDS011;20423;49.448;9.056;2022-10-17T00:18:36;6.47;;;3.80;;
34146;SDS011;20423;49.448;9.056;2022-10-17T00:21:02;9.50;;;3.95;;
34146;SDS011;20423;49.448;9.056;2022-10-17T00:23:28;16.90;;;4.18;;
34146;SDS011;20423;49.448;9.056;2022-10-17T00:26:00;8.00;;;4.40;;
34146;SDS011;20423;49.448;9.056;2022-10-17T00:28:29;6.90;;;3.97;;
34146;SDS011;20423;49.448;9.056;2022-10-17T00:30:59;8.05;;;4.30;;
34146;SDS011;20423;49.448;9.056;2022-10-17T00:33:27;13.52;;;4.38;;
34146;SDS011;20423;49.448;9.056;2022-10-17T00:38:49;12.30;;;4.72;;
34146;SDS011;20423;49.448;9.056;2022-10-17T00:41:19;7.80;;;4.55;;
34146;SDS011;20423;49.448;9.056;2022-10-17T00:49:38;10.43;;;4.90;;
34146;SDS011;20423;49.448;9.056;2022-10-17T00:52:05;12.70;;;5.22;;
34146;SDS011;20423;49.448;9.056;2022-10-17T00:54:58;11.25;;;4.53;;
34146;SDS011;20423;49.448;9.056;2022-10-17T00:57:27;9.63;;;4.80;;
34146;SDS011;20423;49.448;9.056;2022-10-17T00:59:55;11.60;;;4.55;;
34146;SDS011;20423;49.448;9.056;2022-10-17T01:02:23;10.02;;;5.07;;
34146;SDS011;20423;49.448;9.056;2022-10-17T01:04:50;6.90;;;4.97;;
34146;SDS011;20423;49.448;9.056;2022-10-17T01:07:19;11.25;;;5.15;;
34146;SDS011;20423;49.448;9.056;2022-10-17T01:09:45;13.50;;;5.70;;
34146;SDS011;20423;49.448;9.056;2022-10-17T01:14:52;12.35;;;6.40;;
34146;SDS011;20423;49.448;9.056;2022-10-17T01:21:22;20.67;;;8.88;;
34146;SDS011;20423;49.448;9.056;2022-10-17T01:29:26;19.55;;;9.63;;
34146;SDS011;20423;49.448;9.056;2022-10-17T01:34:34;18.10;;;10.88;;
34146;SDS011;20423;49.448;9.056;2022-10-17T01:37:07;27.45;;;11.35;;
34146;SDS011;20423;49.448;9.056;2022-10-17T01:42:48;20.58;;;11.98;;
34146;SDS011;20423;49.448;9.056;2022-10-17T01:48:41;30.65;;;12.60;;
34146;SDS011;20423;49.448;9.056;2022-10-17T01:51:15;27.50;;;13.45;;
34146;SDS011;20423;49.448;9.056;2022-10-17T01:53:52;25.33;;;13.18;;
34146;SDS011;20423;49.448;9.056;2022-10-17T02:03:29;25.35;;;13.23;;
34146;SDS011;20423;49.448;9.056;2022-10-17T02:05:56;25.23;;;13.30;;
34146;SDS011;20423;49.448;9.056;2022-10-17T02:08:38;23.25;;;13.13;;
34146;SDS011;20423;49.448;9.056;2022-10-17T02:20:24;22.33;;;12.80;;
34146;SDS011;20423;49.448;9.056;2022-10-17T02:22:57;27.83;;;12.93;;
34146;SDS011;20423;49.448;9.056;2022-10-17T02:25:45;23.90;;;13.63;;
34146;SDS011;20423;49.448;9.056;2022-10-17T02:28:19;20.17;;;12.65;;
34146;SDS011;20423;49.448;9.056;2022-10-17T02:30:59;21.17;;;12.45;;
34146;SDS011;20423;49.448;9.056;2022-10-17T02:33:30;18.02;;;11.75;;
34146;SDS011;20423;49.448;9.056;2022-10-17T02:36:05;18.23;;;10.77;;
34146;SDS011;20423;49.448;9.056;2022-10-17T02:38:35;18.17;;;10.90;;
34146;SDS011;20423;49.448;9.056;2022-10-17T02:41:03;25.73;;;10.52;;
34146;SDS011;20423;49.448;9.056;2022-10-17T02:43:32;15.63;;;9.18;;
34146;SDS011;20423;49.448;9.056;2022-10-17T02:45:58;20.27;;;8.77;;
34146;SDS011;20423;49.448;9.056;2022-10-17T02:53:59;18.95;;;8.85;;
34146;SDS011;20423;49.448;9.056;2022-10-17T02:56:28;15.00;;;8.13;;
34146;SDS011;20423;49.448;9.056;2022-10-17T02:58:58;13.07;;;8.50;;
34146;SDS011;20423;49.448;9.056;2022-10-17T03:01:26;18.20;;;10.68;;
34146;SDS011;20423;49.448;9.056;2022-10-17T03:04:26;13.50;;;8.95;;
34146;SDS011;20423;49.448;9.056;2022-10-17T03:10:33;14.48;;;9.95;;
34146;SDS011;20423;49.448;9.056;2022-10-17T03:12:59;16.00;;;9.85;;
34146;SDS011;20423;49.448;9.056;2022-10-17T03:15:24;18.25;;;9.43;;
34146;SDS011;20423;49.448;9.056;2022-10-17T03:17:50;13.88;;;8.75;;
34146;SDS011;20423;49.448;9.056;2022-10-17T03:20:17;25.73;;;10.00;;
34146;SDS011;20423;49.448;9.056;2022-10-17T03:22:43;12.00;;;8.35;;
34146;SDS011;20423;49.448;9.056;2022-10-17T03:25:09;15.57;;;8.30;;
34146;SDS011;20423;49.448;9.056;2022-10-17T03:27:35;15.40;;;8.75;;
34146;SDS011;20423;49.448;9.056;2022-10-17T03:30:01;12.55;;;8.40;;
34146;SDS011;20423;49.448;9.056;2022-10-17T03:32:28;14.50;;;7.68;;
34146;SDS011;20423;49.448;9.056;2022-10-17T03:34:54;15.48;;;8.82;;
34146;SDS011;20423;49.448;9.056;2022-10-17T03:37:19;18.02;;;9.98;;
34146;SDS011;20423;49.448;9.056;2022-10-17T03:39:45;17.00;;;9.50;;
34146;SDS011;20423;49.448;9.056;2022-10-17T03:48:08;25.35;;;10.57;;
34146;SDS011;20423;49.448;9.056;2022-10-17T03:50:34;21.52;;;9.95;;
34146;SDS011;20423;49.448;9.056;2022-10-17T03:52:59;17.55;;;9.63;;
34146;SDS011;20423;49.448;9.056;2022-10-17T03:58:58;17.17;;;9.63;;
34146;SDS011;20423;49.448;9.056;2022-10-17T04:01:25;14.75;;;9.50;;
34146;SDS011;20423;49.448;9.056;2022-10-17T04:03:51;17.23;;;8.95;;
34146;SDS011;20423;49.448;9.056;2022-10-17T04:06:20;20.40;;;9.07;;
34146;SDS011;20423;49.448;9.056;2022-10-17T04:08:47;21.63;;;9.07;;
34146;SDS011;20423;49.448;9.056;2022-10-17T04:11:19;18.48;;;10.07;;
34146;SDS011;20423;49.448;9.056;2022-10-17T04:13:46;18.88;;;10.23;;
34146;SDS011;20423;49.448;9.056;2022-10-17T04:16:16;17.60;;;9.57;;
34146;SDS011;20423;49.448;9.056;2022-10-17T04:18:58;18.42;;;9.27;;
34146;SDS011;20423;49.448;9.056;2022-10-17T04:21:27;15.20;;;8.98;;
34146;SDS011;20423;49.448;9.056;2022-10-17T04:23:54;19.55;;;9.45;;
34146;SDS011;20423;49.448;9.056;2022-10-17T04:26:38;26.77;;;13.52;;
34146;SDS011;20423;49.448;9.056;2022-10-17T04:29:04;24.80;;;11.55;;
34146;SDS011;20423;49.448;9.056;2022-10-17T04:31:30;22.95;;;11.65;;
34146;SDS011;20423;49.448;9.056;2022-10-17T04:34:03;22.27;;;11.00;;
34146;SDS011;20423;49.448;9.056;2022-10-17T04:36:28;20.52;;;9.70;;
34146;SDS011;20423;49.448;9.056;2022-10-17T04:38:54;17.92;;;9.07;;
34146;SDS011;20423;49.448;9.056;2022-10-17T04:41:20;21.48;;;10.07;;
34146;SDS011;20423;49.448;9.056;2022-10-17T04:43:46;13.68;;;8.65;;
34146;SDS011;20423;49.448;9.056;2022-10-17T04:46:12;12.85;;;8.52;;
34146;SDS011;20423;49.448;9.056;2022-10-17T04:48:39;13.60;;;8.60;;
34146;SDS011;20423;49.448;9.056;2022-10-17T04:51:07;14.52;;;7.50;;
34146;SDS011;20423;49.448;9.056;2022-10-17T04:53:43;12.75;;;7.70;;
34146;SDS011;20423;49.448;9.056;2022-10-17T04:56:11;17.55;;;7.38;;
34146;SDS011;20423;49.448;9.056;2022-10-17T04:58:42;11.98;;;7.65;;
34146;SDS011;20423;49.448;9.056;2022-10-17T05:01:10;20.92;;;8.15;;
34146;SDS011;20423;49.448;9.056;2022-10-17T05:06:54;19.58;;;8.02;;
34146;SDS011;20423;49.448;9.056;2022-10-17T05:09:31;14.88;;;7.95;;
34146;SDS011;20423;49.448;9.056;2022-10-17T05:11:57;14.25;;;7.75;;
34146;SDS011;20423;49.448;9.056;2022-10-17T05:14:24;16.17;;;7.43;;
34146;SDS011;20423;49.448;9.056;2022-10-17T05:16:49;18.83;;;8.38;;
34146;SDS011;20423;49.448;9.056;2022-10-17T05:19:15;13.82;;;7.88;;
34146;SDS011;20423;49.448;9.056;2022-10-17T05:21:45;20.95;;;8.88;;
34146;SDS011;20423;49.448;9.056;2022-10-17T05:24:12;10.73;;;6.60;;
34146;SDS011;20423;49.448;9.056;2022-10-17T05:26:38;9.73;;;6.63;;
34146;SDS011;20423;49.448;9.056;2022-10-17T05:29:04;13.23;;;6.85;;
34146;SDS011;20423;49.448;9.056;2022-10-17T05:31:34;9.93;;;6.82;;
34146;SDS011;20423;49.448;9.056;2022-10-17T05:34:00;10.35;;;7.97;;
34146;SDS011;20423;49.448;9.056;2022-10-17T05:36:28;9.82;;;6.97;;
34146;SDS011;20423;49.448;9.056;2022-10-17T05:38:54;9.07;;;6.70;;
34146;SDS011;20423;49.448;9.056;2022-10-17T05:41:20;17.15;;;6.88;;
34146;SDS011;20423;49.448;9.056;2022-10-17T05:43:47;13.85;;;6.88;;
34146;SDS011;20423;49.448;9.056;2022-10-17T05:46:17;12.55;;;6.32;;
34146;SDS011;20423;49.448;9.056;2022-10-17T05:48:43;8.20;;;5.97;;
34146;SDS011;20423;49.448;9.056;2022-10-17T05:51:09;13.43;;;6.43;;
34146;SDS011;20423;49.448;9.056;2022-10-17T05:53:36;9.85;;;6.35;;
34146;SDS011;20423;49.448;9.056;2022-10-17T05:56:09;13.02;;;7.07;;
34146;SDS011;20423;49.448;9.056;2022-10-17T05:58:38;9.93;;;6.57;;
34146;SDS011;20423;49.448;9.056;2022-10-17T06:01:08;22.33;;;6.55;;
34146;SDS011;20423;49.448;9.056;2022-10-17T06:03:34;13.93;;;6.45;;
34146;SDS011;20423;49.448;9.056;2022-10-17T06:06:11;10.63;;;6.38;;
34146;SDS011;20423;49.448;9.056;2022-10-17T06:08:41;9.35;;;5.57;;
34146;SDS011;20423;49.448;9.056;2022-10-17T06:11:12;8.73;;;5.55;;
34146;SDS011;20423;49.448;9.056;2022-10-17T06:13:38;8.48;;;5.43;;
34146;SDS011;20423;49.448;9.056;2022-10-17T06:16:10;13.00;;;5.22;;
34146;SDS011;20423;49.448;9.056;2022-10-17T06:18:37;17.05;;;5.40;;
34146;SDS011;20423;49.448;9.056;2022-10-17T06:21:07;12.25;;;5.30;;
34146;SDS011;20423;49.448;9.056;2022-10-17T06:23:38;14.57;;;5.78;;
34146;SDS011;20423;49.448;9.056;2022-10-17T06:26:12;11.77;;;5.97;;
34146;SDS011;20423;49.448;9.056;2022-10-17T06:28:38;14.30;;;7.32;;
34146;SDS011;20423;49.448;9.056;2022-10-17T06:31:11;12.82;;;7.00;;
34146;SDS011;20423;49.448;9.056;2022-10-17T06:33:39;14.95;;;5.78;;
34146;SDS011;20423;49.448;9.056;2022-10-17T06:36:06;10.07;;;6.45;;
34146;SDS011;20423;49.448;9.056;2022-10-17T06:38:35;18.75;;;6.90;;
34146;SDS011;20423;49.448;9.056;2022-10-17T06:41:06;13.88;;;7.22;;
34146;SDS011;20423;49.448;9.056;2022-10-17T06:43:35;10.15;;;6.65;;
34146;SDS011;20423;49.448;9.056;2022-10-17T06:46:21;20.52;;;6.13;;
34146;SDS011;20423;49.448;9.056;2022-10-17T06:51:46;11.35;;;6.20;;
34146;SDS011;20423;49.448;9.056;2022-10-17T06:54:13;9.85;;;6.70;;
34146;SDS011;20423;49.448;9.056;2022-10-17T06:57:18;10.93;;;6.40;;
34146;SDS011;20423;49.448;9.056;2022-10-17T06:59:50;10.60;;;5.90;;
34146;SDS011;20423;49.448;9.056;2022-10-17T07:02:20;7.53;;;6.03;;
34146;SDS011;20423;49.448;9.056;2022-10-17T07:04:49;9.02;;;5.35;;
34146;SDS011;20423;49.448;9.056;2022-10-17T07:07:14;12.80;;;5.90;;
34146;SDS011;20423;49.448;9.056;2022-10-17T07:12:44;7.47;;;5.22;;
34146;SDS011;20423;49.448;9.056;2022-10-17T07:15:10;9.13;;;5.88;;
34146;SDS011;20423;49.448;9.056;2022-10-17T07:17:36;12.85;;;5.20;;
34146;SDS011;20423;49.448;9.056;2022-10-17T07:20:01;13.18;;;5.13;;
34146;SDS011;20423;49.448;9.056;2022-10-17T07:22:30;8.95;;;4.72;;
34146;SDS011;20423;49.448;9.056;2022-10-17T07:24:57;7.60;;;4.22;;
34146;SDS011;20423;49.448;9.056;2022-10-17T07:27:29;9.68;;;4.38;;
34146;SDS011;20423;49.448;9.056;2022-10-17T07:29:55;9.88;;;4.03;;
34146;SDS011;20423;49.448;9.056;2022-10-17T07:32:41;6.57;;;3.38;;
34146;SDS011;20423;49.448;9.056;2022-10-17T07:35:08;5.97;;;3.53;;
34146;SDS011;20423;49.448;9.056;2022-10-17T07:37:35;6.25;;;3.28;;
34146;SDS011;20423;49.448;9.056;2022-10-17T07:40:01;6.13;;;3.15;;
34146;SDS011;20423;49.448;9.056;2022-10-17T07:42:27;8.50;;;3.75;;
34146;SDS011;20423;49.448;9.056;2022-10-17T07:44:53;12.88;;;3.72;;
34146;SDS011;20423;49.448;9.056;2022-10-17T07:47:20;4.95;;;3.03;;
34146;SDS011;20423;49.448;9.056;2022-10-17T07:49:47;5.28;;;2.92;;
34146;SDS011;20423;49.448;9.056;2022-10-17T07:52:13;8.63;;;3.35;;
34146;SDS011;20423;49.448;9.056;2022-10-17T07:54:40;10.30;;;3.10;;
34146;SDS011;20423;49.448;9.056;2022-10-17T07:57:05;13.52;;;2.75;;
34146;SDS011;20423;49.448;9.056;2022-10-17T07:59:31;6.70;;;3.10;;
34146;SDS011;20423;49.448;9.056;2022-10-17T08:01:58;11.93;;;3.55;;
34146;SDS011;20423;49.448;9.056;2022-10-17T08:04:24;4.72;;;2.90;;
34146;SDS011;20423;49.448;9.056;2022-10-17T08:06:51;9.07;;;2.80;;
34146;SDS011;20423;49.448;9.056;2022-10-17T08:09:17;5.88;;;2.90;;
34146;SDS011;20423;49.448;9.056;2022-10-17T08:11:43;7.30;;;2.65;;
34146;SDS011;20423;49.448;9.056;2022-10-17T08:14:09;4.45;;;2.88;;
34146;SDS011;20423;49.448;9.056;2022-10-17T08:16:39;8.00;;;3.15;;
34146;SDS011;20423;49.448;9.056;2022-10-17T08:19:05;3.25;;;2.33;;
34146;SDS011;20423;49.448;9.056;2022-10-17T08:21:33;8.52;;;2.80;;
34146;SDS011;20423;49.448;9.056;2022-10-17T08:23:59;4.30;;;2.72;;
34146;SDS011;20423;49.448;9.056;2022-10-17T08:26:26;3.40;;;2.50;;
34146;SDS011;20423;49.448;9.056;2022-10-17T08:28:52;7.80;;;2.63;;
34146;SDS011;20423;49.448;9.056;2022-10-17T08:34:09;11.93;;;2.63;;
34146;SDS011;20423;49.448;9.056;2022-10-17T08:36:34;2.95;;;2.55;;
34146;SDS011;20423;49.448;9.056;2022-10-17T08:39:00;7.55;;;2.53;;
34146;SDS011;20423;49.448;9.056;2022-10-17T08:46:58;4.47;;;2.37;;
34146;SDS011;20423;49.448;9.056;2022-10-17T08:56:12;10.10;;;2.38;;
34146;SDS011;20423;49.448;9.056;2022-10-17T08:58:44;8.85;;;2.58;;
34146;SDS011;20423;49.448;9.056;2022-10-17T09:07:11;7.78;;;2.95;;
34146;SDS011;20423;49.448;9.056;2022-10-17T09:20:46;10.38;;;2.50;;
34146;SDS011;20423;49.448;9.056;2022-10-17T09:25:44;9.25;;;2.65;;
34146;SDS011;20423;49.448;9.056;2022-10-17T09:28:20;10.27;;;2.55;;
34146;SDS011;20423;49.448;9.056;2022-10-17T09:33:48;22.00;;;2.50;;
34146;SDS011;20423;49.448;9.056;2022-10-17T09:36:17;7.57;;;2.30;;
34146;SDS011;20423;49.448;9.056;2022-10-17T09:38:52;13.23;;;2.42;;
34146;SDS011;20423;49.448;9.056;2022-10-17T09:41:46;11.38;;;2.47;;
34146;SDS011;20423;49.448;9.056;2022-10-17T09:46:42;4.03;;;2.13;;
34146;SDS011;20423;49.448;9.056;2022-10-17T09:49:22;6.07;;;2.30;;
34146;SDS011;20423;49.448;9.056;2022-10-17T09:52:11;3.78;;;2.53;;
34146;SDS011;20423;49.448;9.056;2022-10-17T09:54:41;5.57;;;2.55;;
34146;SDS011;20423;49.448;9.056;2022-10-17T09:57:10;9.75;;;2.78;;
34146;SDS011;20423;49.448;9.056;2022-10-17T09:59:38;4.13;;;2.30;;
34146;SDS011;20423;49.448;9.056;2022-10-17T10:07:44;6.50;;;1.90;;
34146;SDS011;20423;49.448;9.056;2022-10-17T10:10:26;3.65;;;2.30;;
34146;SDS011;20423;49.448;9.056;2022-10-17T10:13:17;21.08;;;3.92;;
34146;SDS011;20423;49.448;9.056;2022-10-17T10:15:47;7.05;;;2.20;;
34146;SDS011;20423;49.448;9.056;2022-10-17T10:21:03;5.22;;;2.38;;
34146;SDS011;20423;49.448;9.056;2022-10-17T10:23:36;10.05;;;2.35;;
34146;SDS011;20423;49.448;9.056;2022-10-17T10:28:56;11.27;;;3.05;;
34146;SDS011;20423;49.448;9.056;2022-10-17T10:31:29;6.38;;;2.28;;
34146;SDS011;20423;49.448;9.056;2022-10-17T10:34:14;8.35;;;2.13;;
34146;SDS011;20423;49.448;9.056;2022-10-17T10:41:54;8.23;;;2.20;;
34146;SDS011;20423;49.448;9.056;2022-10-17T10:44:22;8.20;;;2.20;;
34146;SDS011;20423;49.448;9.056;2022-10-17T10:49:43;9.75;;;2.22;;
34146;SDS011;20423;49.448;9.056;2022-10-17T10:52:11;5.55;;;2.30;;
34146;SDS011;20423;49.448;9.056;2022-10-17T11:04:13;5.70;;;2.63;;
34146;SDS011;20423;49.448;9.056;2022-10-17T11:15:41;6.40;;;2.50;;
34146;SDS011;20423;49.448;9.056;2022-10-17T11:23:27;3.58;;;2.25;;
34146;SDS011;20423;49.448;9.056;2022-10-17T11:26:20;5.90;;;2.22;;
34146;SDS011;20423;49.448;9.056;2022-10-17T11:28:55;7.68;;;2.20;;
34146;SDS011;20423;49.448;9.056;2022-10-17T11:31:23;13.07;;;4.15;;
34146;SDS011;20423;49.448;9.056;2022-10-17T11:33:59;10.40;;;4.85;;
34146;SDS011;20423;49.448;9.056;2022-10-17T11:36:30;7.00;;;2.78;;
34146;SDS011;20423;49.448;9.056;2022-10-17T11:39:00;11.60;;;2.90;;
34146;SDS011;20423;49.448;9.056;2022-10-17T11:41:40;8.00;;;2.75;;
34146;SDS011;20423;49.448;9.056;2022-10-17T11:49:46;8.95;;;2.25;;
34146;SDS011;20423;49.448;9.056;2022-10-17T11:52:42;4.55;;;2.80;;
34146;SDS011;20423;49.448;9.056;2022-10-17T11:55:27;7.97;;;2.10;;
34146;SDS011;20423;49.448;9.056;2022-10-17T12:00:46;7.15;;;2.30;;
34146;SDS011;20423;49.448;9.056;2022-10-17T12:03:34;5.72;;;2.58;;
34146;SDS011;20423;49.448;9.056;2022-10-17T12:17:03;14.57;;;2.63;;
34146;SDS011;20423;49.448;9.056;2022-10-17T12:19:49;8.77;;;2.85;;
34146;SDS011;20423;49.448;9.056;2022-10-17T12:25:02;15.82;;;4.30;;
34146;SDS011;20423;49.448;9.056;2022-10-17T12:32:36;10.55;;;2.80;;
34146;SDS011;20423;49.448;9.056;2022-10-17T12:35:02;11.27;;;3.20;;
34146;SDS011;20423;49.448;9.056;2022-10-17T12:43:00;9.83;;;2.83;;
34146;SDS011;20423;49.448;9.056;2022-10-17T12:51:04;7.60;;;2.80;;
34146;SDS011;20423;49.448;9.056;2022-10-17T12:56:09;7.95;;;3.03;;
34146;SDS011;20423;49.448;9.056;2022-10-17T12:58:35;7.38;;;2.83;;
34146;SDS011;20423;49.448;9.056;2022-10-17T13:01:01;12.45;;;3.85;;
34146;SDS011;20423;49.448;9.056;2022-10-17T13:03:30;14.48;;;3.28;;
34146;SDS011;20423;49.448;9.056;2022-10-17T13:05:59;8.50;;;2.83;;
34146;SDS011;20423;49.448;9.056;2022-10-17T13:08:31;20.50;;;4.20;;
34146;SDS011;20423;49.448;9.056;2022-10-17T13:11:01;15.57;;;2.60;;
34146;SDS011;20423;49.448;9.056;2022-10-17T13:16:07;9.77;;;3.40;;
34146;SDS011;20423;49.448;9.056;2022-10-17T13:18:33;9.52;;;3.45;;
34146;SDS011;20423;49.448;9.056;2022-10-17T13:21:11;7.95;;;3.33;;
34146;SDS011;20423;49.448;9.056;2022-10-17T13:23:40;10.40;;;3.28;;
34146;SDS011;20423;49.448;9.056;2022-10-17T13:26:10;8.63;;;3.15;;
34146;SDS011;20423;49.448;9.056;2022-10-17T13:28:39;8.90;;;3.30;;
34146;SDS011;20423;49.448;9.056;2022-10-17T13:31:06;9.02;;;3.33;;
34146;SDS011;20423;49.448;9.056;2022-10-17T13:33:50;8.98;;;3.05;;
34146;SDS011;20423;49.448;9.056;2022-10-17T13:36:21;17.67;;;3.47;;
34146;SDS011;20423;49.448;9.056;2022-10-17T13:38:46;7.50;;;3.25;;
34146;SDS011;20423;49.448;9.056;2022-10-17T13:44:00;15.80;;;4.03;;
34146;SDS011;20423;49.448;9.056;2022-10-17T13:46:32;5.45;;;2.80;;
34146;SDS011;20423;49.448;9.056;2022-10-17T13:48:58;8.90;;;3.33;;
34146;SDS011;20423;49.448;9.056;2022-10-17T13:51:32;10.77;;;3.15;;
34146;SDS011;20423;49.448;9.056;2022-10-17T13:53:58;7.78;;;3.50;;
34146;SDS011;20423;49.448;9.056;2022-10-17T13:56:24;10.10;;;3.25;;
34146;SDS011;20423;49.448;9.056;2022-10-17T13:59:02;7.63;;;2.90;;
34146;SDS011;20423;49.448;9.056;2022-10-17T14:01:42;17.50;;;3.17;;
34146;SDS011;20423;49.448;9.056;2022-10-17T14:04:08;9.57;;;3.00;;
34146;SDS011;20423;49.448;9.056;2022-10-17T14:06:39;10.15;;;3.65;;
34146;SDS011;20423;49.448;9.056;2022-10-17T14:09:16;9.55;;;3.63;;
34146;SDS011;20423;49.448;9.056;2022-10-17T14:11:58;7.47;;;3.50;;
34146;SDS011;20423;49.448;9.056;2022-10-17T14:14:31;11.45;;;3.50;;
34146;SDS011;20423;49.448;9.056;2022-10-17T14:16:57;7.20;;;3.22;;
34146;SDS011;20423;49.448;9.056;2022-10-17T14:19:27;9.70;;;3.75;;
34146;SDS011;20423;49.448;9.056;2022-10-17T14:22:17;11.60;;;4.15;;
34146;SDS011;20423;49.448;9.056;2022-10-17T14:24:46;4.60;;;3.13;;
34146;SDS011;20423;49.448;9.056;2022-10-17T14:27:24;11.20;;;3.40;;
34146;SDS011;20423;49.448;9.056;2022-10-17T14:29:52;10.27;;;3.22;;
34146;SDS011;20423;49.448;9.056;2022-10-17T14:32:19;9.00;;;3.30;;
34146;SDS011;20423;49.448;9.056;2022-10-17T14:34:47;8.63;;;3.47;;
34146;SDS011;20423;49.448;9.056;2022-10-17T14:37:23;10.73;;;3.30;;
34146;SDS011;20423;49.448;9.056;2022-10-17T14:43:58;13.38;;;3.50;;
34146;SDS011;20423;49.448;9.056;2022-10-17T14:46:30;5.32;;;3.17;;
34146;SDS011;20423;49.448;9.056;2022-10-17T14:49:14;9.23;;;3.40;;
34146;SDS011;20423;49.448;9.056;2022-10-17T14:54:38;12.48;;;3.42;;
34146;SDS011;20423;49.448;9.056;2022-10-17T14:57:14;8.98;;;3.40;;
34146;SDS011;20423;49.448;9.056;2022-10-17T14:59:43;4.57;;;3.40;;
34146;SDS011;20423;49.448;9.056;2022-10-17T15:02:09;9.35;;;4.13;;
34146;SDS011;20423;49.448;9.056;2022-10-17T15:04:36;5.82;;;3.42;;
34146;SDS011;20423;49.448;9.056;2022-10-17T15:07:01;9.07;;;3.30;;
34146;SDS011;20423;49.448;9.056;2022-10-17T15:09:27;13.48;;;5.47;;
34146;SDS011;20423;49.448;9.056;2022-10-17T15:11:58;16.10;;;7.97;;
34146;SDS011;20423;49.448;9.056;2022-10-17T15:14:28;17.02;;;7.95;;
34146;SDS011;20423;49.448;9.056;2022-10-17T15:16:54;16.15;;;9.23;;
34146;SDS011;20423;49.448;9.056;2022-10-17T15:19:19;8.88;;;4.72;;
34146;SDS011;20423;49.448;9.056;2022-10-17T15:21:45;8.52;;;4.43;;
34146;SDS011;20423;49.448;9.056;2022-10-17T15:24:11;11.48;;;5.68;;
34146;SDS011;20423;49.448;9.056;2022-10-17T15:26:36;12.13;;;6.88;;
34146;SDS011;20423;49.448;9.056;2022-10-17T15:29:02;9.18;;;7.03;;
34146;SDS011;20423;49.448;9.056;2022-10-17T15:31:28;16.67;;;5.50;;
34146;SDS011;20423;49.448;9.056;2022-10-17T15:33:58;15.50;;;5.45;;
34146;SDS011;20423;49.448;9.056;2022-10-17T15:38:50;13.88;;;4.88;;
34146;SDS011;20423;49.448;9.056;2022-10-17T15:41:24;8.98;;;5.13;;
34146;SDS011;20423;49.448;9.056;2022-10-17T15:43:52;15.40;;;4.88;;
34146;SDS011;20423;49.448;9.056;2022-10-17T15:46:18;12.50;;;5.45;;
34146;SDS011;20423;49.448;9.056;2022-10-17T15:48:48;7.28;;;3.80;;
34146;SDS011;20423;49.448;9.056;2022-10-17T15:51:14;12.00;;;4.70;;
34146;SDS011;20423;49.448;9.056;2022-10-17T15:53:40;9.85;;;4.97;;
34146;SDS011;20423;49.448;9.056;2022-10-17T15:56:06;12.07;;;4.63;;
34146;SDS011;20423;49.448;9.056;2022-10-17T15:58:37;11.18;;;4.47;;
34146;SDS011;20423;49.448;9.056;2022-10-17T16:03:53;17.63;;;4.50;;
34146;SDS011;20423;49.448;9.056;2022-10-17T16:06:20;12.68;;;4.40;;
34146;SDS011;20423;49.448;9.056;2022-10-17T16:08:46;9.93;;;5.53;;
34146;SDS011;20423;49.448;9.056;2022-10-17T16:11:17;7.25;;;4.53;;
34146;SDS011;20423;49.448;9.056;2022-10-17T16:13:54;11.68;;;4.95;;
34146;SDS011;20423;49.448;9.056;2022-10-17T16:16:21;13.32;;;4.80;;
34146;SDS011;20423;49.448;9.056;2022-10-17T16:18:47;8.43;;;4.50;;
34146;SDS011;20423;49.448;9.056;2022-10-17T16:21:13;11.75;;;4.72;;
34146;SDS011;20423;49.448;9.056;2022-10-17T16:23:41;18.98;;;5.70;;
34146;SDS011;20423;49.448;9.056;2022-10-17T16:26:07;16.50;;;5.40;;
34146;SDS011;20423;49.448;9.056;2022-10-17T16:31:56;14.80;;;6.25;;
34146;SDS011;20423;49.448;9.056;2022-10-17T16:34:22;14.00;;;6.07;;
34146;SDS011;20423;49.448;9.056;2022-10-17T16:36:48;16.23;;;5.63;;
34146;SDS011;20423;49.448;9.056;2022-10-17T16:39:13;11.68;;;7.28;;
34146;SDS011;20423;49.448;9.056;2022-10-17T16:41:39;16.17;;;8.23;;
34146;SDS011;20423;49.448;9.056;2022-10-17T16:44:06;16.77;;;8.23;;
34146;SDS011;20423;49.448;9.056;2022-10-17T16:46:34;19.73;;;7.65;;
34146;SDS011;20423;49.448;9.056;2022-10-17T16:49:02;14.73;;;8.55;;
34146;SDS011;20423;49.448;9.056;2022-10-17T16:51:28;14.48;;;7.72;;
34146;SDS011;20423;49.448;9.056;2022-10-17T16:53:55;16.48;;;7.72;;
34146;SDS011;20423;49.448;9.056;2022-10-17T16:56:24;13.48;;;6.72;;
34146;SDS011;20423;49.448;9.056;2022-10-17T16:58:54;16.27;;;6.40;;
34146;SDS011;20423;49.448;9.056;2022-10-17T17:01:20;10.95;;;6.82;;
34146;SDS011;20423;49.448;9.056;2022-10-17T17:03:47;13.30;;;7.10;;
34146;SDS011;20423;49.448;9.056;2022-10-17T17:06:18;17.10;;;8.50;;
34146;SDS011;20423;49.448;9.056;2022-10-17T17:08:52;18.38;;;7.35;;
34146;SDS011;20423;49.448;9.056;2022-10-17T17:11:24;25.20;;;8.50;;
34146;SDS011;20423;49.448;9.056;2022-10-17T17:13:53;12.38;;;7.25;;
34146;SDS011;20423;49.448;9.056;2022-10-17T17:16:21;20.27;;;8.80;;
34146;SDS011;20423;49.448;9.056;2022-10-17T17:18:48;16.13;;;8.88;;
34146;SDS011;20423;49.448;9.056;2022-10-17T17:21:18;19.08;;;10.48;;
34146;SDS011;20423;49.448;9.056;2022-10-17T17:23:44;18.23;;;11.60;;
34146;SDS011;20423;49.448;9.056;2022-10-17T17:26:14;29.20;;;12.48;;
34146;SDS011;20423;49.448;9.056;2022-10-17T17:28:42;18.85;;;11.93;;
34146;SDS011;20423;49.448;9.056;2022-10-17T17:31:08;17.15;;;10.98;;
34146;SDS011;20423;49.448;9.056;2022-10-17T17:33:36;25.48;;;12.02;;
34146;SDS011;20423;49.448;9.056;2022-10-17T17:36:03;31.23;;;15.57;;
34146;SDS011;20423;49.448;9.056;2022-10-17T17:38:31;23.77;;;12.75;;
34146;SDS011;20423;49.448;9.056;2022-10-17T17:40:58;18.98;;;11.15;;
34146;SDS011;20423;49.448;9.056;2022-10-17T17:43:24;24.95;;;11.57;;
34146;SDS011;20423;49.448;9.056;2022-10-17T17:45:50;21.00;;;10.63;;
34146;SDS011;20423;49.448;9.056;2022-10-17T17:48:16;32.30;;;11.40;;
34146;SDS011;20423;49.448;9.056;2022-10-17T17:50:42;17.52;;;10.80;;
34146;SDS011;20423;49.448;9.056;2022-10-17T17:53:08;17.08;;;10.73;;
34146;SDS011;20423;49.448;9.056;2022-10-17T17:55:35;19.60;;;11.20;;
34146;SDS011;20423;49.448;9.056;2022-10-17T17:58:01;19.30;;;11.07;;
34146;SDS011;20423;49.448;9.056;2022-10-17T18:00:28;21.13;;;11.80;;
34146;SDS011;20423;49.448;9.056;2022-10-17T18:02:54;16.67;;;11.05;;
34146;SDS011;20423;49.448;9.056;2022-10-17T18:05:20;21.75;;;11.98;;
34146;SDS011;20423;49.448;9.056;2022-10-17T18:07:47;21.50;;;11.35;;
34146;SDS011;20423;49.448;9.056;2022-10-17T18:10:13;22.25;;;11.57;;
34146;SDS011;20423;49.448;9.056;2022-10-17T18:12:39;20.08;;;11.50;;
34146;SDS011;20423;49.448;9.056;2022-10-17T18:15:05;26.50;;;11.52;;
34146;SDS011;20423;49.448;9.056;2022-10-17T18:17:31;17.63;;;12.18;;
34146;SDS011;20423;49.448;9.056;2022-10-17T18:19:57;22.85;;;12.73;;
34146;SDS011;20423;49.448;9.056;2022-10-17T18:22:23;26.73;;;14.10;;
34146;SDS011;20423;49.448;9.056;2022-10-17T18:24:48;21.67;;;13.05;;
34146;SDS011;20423;49.448;9.056;2022-10-17T18:27:14;22.88;;;12.57;;
34146;SDS011;20423;49.448;9.056;2022-10-17T18:29:41;28.05;;;12.65;;
34146;SDS011;20423;49.448;9.056;2022-10-17T18:32:09;28.50;;;14.70;;